Time;durP1;ratioP1;P1;durP2;ratioP2;P2;SDS_P1;SDS_P2;PMS_P1;PMS_P2;Temp;Humidity;BMP_temperature;BMP_pressure;BME280_temperature;BME280_humidity;BME280_pressure;Samples;Min_cycle;Max_cycle;Signal;HPM_P1;HPM_P2
2021/12/27 00:01:02;;;;;;;16.90;10.93;;;-0.30;99.90;;;;;;5015382;28;20154;-67
2021/12/27 00:03:27;;;;;;;9.90;7.32;;;-0.40;99.90;;;;;;5014946;28;20041;-67
2021/12/27 00:05:53;;;;;;;16.58;9.77;;;-0.40;99.90;;;;;;5016366;28;20037;-67
2021/12/27 00:08:19;;;;;;;9.43;8.07;;;-0.40;99.90;;;;;;5017090;28;20804;-67
2021/12/27 00:10:44;;;;;;;13.65;8.35;;;-0.40;99.90;;;;;;5016782;28;20118;-67
2021/12/27 00:13:10;;;;;;;11.10;8.93;;;-0.40;99.90;;;;;;5016175;28;20821;-67
2021/12/27 00:15:36;;;;;;;16.90;9.85;;;-0.50;99.90;;;;;;5016814;28;20045;-67
2021/12/27 00:18:02;;;;;;;15.35;9.02;;;-0.50;99.90;;;;;;5016468;28;20049;-67
2021/12/27 00:20:28;;;;;;;12.77;6.85;;;-0.50;99.90;;;;;;5016046;28;20045;-67
2021/12/27 00:22:54;;;;;;;13.95;9.27;;;-0.60;99.90;;;;;;5016370;28;20469;-67
2021/12/27 00:25:20;;;;;;;16.98;9.95;;;-0.60;99.90;;;;;;5016571;28;20579;-67
2021/12/27 00:27:46;;;;;;;19.27;10.13;;;-0.60;99.90;;;;;;5016383;28;20056;-67
2021/12/27 00:30:15;;;;;;;16.92;10.50;;;-0.60;99.90;;;;;;5016003;28;20076;-69
2021/12/27 00:32:43;;;;;;;13.32;9.98;;;-0.70;99.90;;;;;;5016775;28;20710;-67
2021/12/27 00:35:10;;;;;;;17.08;8.95;;;-0.70;99.90;;;;;;5018744;28;20045;-67
2021/12/27 00:37:36;;;;;;;12.13;9.50;;;-0.70;99.90;;;;;;5018058;28;20445;-67
2021/12/27 00:40:05;;;;;;;17.15;11.10;;;-0.70;99.90;;;;;;5025329;28;20063;-67
2021/12/27 00:42:31;;;;;;;16.65;10.63;;;-0.50;99.90;;;;;;5038541;28;20114;-67
2021/12/27 00:44:56;;;;;;;16.08;9.05;;;-0.70;99.90;;;;;;5039035;28;20061;-67
2021/12/27 00:47:22;;;;;;;15.98;10.25;;;-0.70;99.90;;;;;;5038089;28;20040;-67
2021/12/27 00:49:47;;;;;;;16.70;8.73;;;-0.70;99.90;;;;;;5021293;28;20132;-67
2021/12/27 00:52:13;;;;;;;16.67;11.30;;;-0.60;99.90;;;;;;5038685;28;20049;-67
2021/12/27 00:54:39;;;;;;;15.35;9.23;;;-0.60;99.90;;;;;;5037916;28;20835;-67
2021/12/27 00:57:05;;;;;;;18.35;10.85;;;-0.60;99.90;;;;;;5020621;28;20061;-67
2021/12/27 00:59:30;;;;;;;18.02;9.18;;;-0.50;99.90;;;;;;5020263;28;20044;-67
2021/12/27 01:01:56;;;;;;;15.65;10.05;;;-0.50;99.90;;;;;;5018603;28;20053;-67
2021/12/27 01:04:22;;;;;;;15.52;8.98;;;-0.50;99.90;;;;;;5020009;28;20101;-67
2021/12/27 01:06:48;;;;;;;13.40;9.75;;;-0.50;99.90;;;;;;5019322;28;20565;-67
2021/12/27 01:09:23;;;;;;;16.52;10.95;;;-0.40;99.90;;;;;;5019529;28;20049;-67
2021/12/27 01:12:10;;;;;;;12.98;9.10;;;-0.40;99.90;;;;;;5038184;28;20900;-67
2021/12/27 01:14:55;;;;;;;13.27;9.32;;;-0.40;99.90;;;;;;5037780;28;20053;-67
2021/12/27 01:17:20;;;;;;;15.75;10.55;;;-0.40;99.90;;;;;;5020052;28;20095;-67
2021/12/27 01:19:46;;;;;;;18.30;9.52;;;-0.40;99.90;;;;;;5037978;28;20820;-67
2021/12/27 01:22:11;;;;;;;15.48;9.07;;;-0.30;99.90;;;;;;5037236;28;20075;-67
2021/12/27 01:24:37;;;;;;;15.00;10.93;;;-0.30;99.90;;;;;;5020153;28;20044;-67
2021/12/27 01:27:03;;;;;;;13.70;10.40;;;-0.30;99.90;;;;;;5020356;28;20065;-67
2021/12/27 01:29:28;;;;;;;22.60;11.88;;;-0.30;99.90;;;;;;5018161;28;20055;-67
2021/12/27 01:31:54;;;;;;;12.20;10.55;;;-0.30;99.90;;;;;;5038244;28;20075;-67
2021/12/27 01:34:22;;;;;;;12.43;9.55;;;-0.30;99.90;;;;;;5020191;28;20067;-67
2021/12/27 01:36:48;;;;;;;19.30;10.00;;;-0.30;99.90;;;;;;5019964;28;20820;-67
2021/12/27 01:39:14;;;;;;;14.63;8.48;;;-0.30;99.90;;;;;;5026120;28;20044;-67
2021/12/27 01:41:39;;;;;;;17.83;10.80;;;-0.30;99.90;;;;;;5042521;28;20199;-67
2021/12/27 01:44:05;;;;;;;15.27;8.05;;;-0.20;99.90;;;;;;5023418;28;20049;-67
2021/12/27 01:46:31;;;;;;;14.75;9.02;;;-0.20;99.90;;;;;;5042418;28;20142;-67
2021/12/27 01:48:58;;;;;;;14.45;10.60;;;-0.20;99.90;;;;;;5023842;28;20735;-67
2021/12/27 01:51:29;;;;;;;17.50;12.57;;;-0.20;99.90;;;;;;5041169;28;20539;-67
2021/12/27 01:53:57;;;;;;;13.57;10.82;;;-0.20;99.90;;;;;;5042541;28;20049;-67
2021/12/27 01:56:24;;;;;;;17.55;11.45;;;-0.20;99.90;;;;;;5024546;28;20053;-67
2021/12/27 01:58:51;;;;;;;17.45;10.75;;;-0.20;99.90;;;;;;5041945;28;20103;-66
2021/12/27 02:01:18;;;;;;;13.93;11.02;;;-0.20;99.90;;;;;;5042322;28;20153;-67
2021/12/27 02:03:44;;;;;;;16.02;9.85;;;-0.20;99.90;;;;;;5040894;28;20805;-67
2021/12/27 02:06:11;;;;;;;16.50;11.13;;;-0.20;99.90;;;;;;5023717;28;20045;-67
2021/12/27 02:08:39;;;;;;;16.15;10.48;;;-0.10;99.90;;;;;;5041666;28;20122;-67
2021/12/27 02:11:06;;;;;;;14.43;10.63;;;-0.20;99.90;;;;;;5041095;28;20056;-67
2021/12/27 02:13:32;;;;;;;19.45;12.40;;;-0.20;99.90;;;;;;5024111;28;20045;-67
2021/12/27 02:15:58;;;;;;;15.25;10.02;;;-0.20;99.90;;;;;;5042226;28;20152;-67
2021/12/27 02:18:23;;;;;;;18.35;11.00;;;-0.10;99.90;;;;;;5040951;28;20451;-68
2021/12/27 02:20:49;;;;;;;18.55;10.75;;;-0.10;99.90;;;;;;5041600;28;20499;-67
2021/12/27 02:23:16;;;;;;;17.55;11.50;;;-0.10;99.90;;;;;;5041202;28;20060;-67
2021/12/27 02:25:47;;;;;;;14.20;10.52;;;-0.10;99.90;;;;;;5040798;28;20420;-67
2021/12/27 02:28:14;;;;;;;15.57;10.15;;;-0.10;99.90;;;;;;5040850;28;20060;-67
2021/12/27 02:30:41;;;;;;;10.93;8.57;;;-0.10;99.90;;;;;;5040045;28;20797;-67
2021/12/27 02:33:08;;;;;;;16.02;12.05;;;-0.10;99.90;;;;;;5040380;28;20110;-67
2021/12/27 02:35:44;;;;;;;17.02;11.40;;;-0.10;99.90;;;;;;5041053;28;20779;-67
2021/12/27 02:38:17;;;;;;;23.25;11.70;;;-0.10;99.90;;;;;;5023025;28;20059;-67
2021/12/27 02:40:43;;;;;;;21.48;12.07;;;-0.10;99.90;;;;;;5018822;28;20053;-67
2021/12/27 02:43:11;;;;;;;19.13;10.57;;;-0.10;99.90;;;;;;5021243;28;20053;-67
2021/12/27 02:45:43;;;;;;;17.20;11.65;;;0.00;99.90;;;;;;5019775;28;20128;-67
2021/12/27 02:48:10;;;;;;;19.27;13.25;;;0.00;99.90;;;;;;5019196;28;20049;-67
2021/12/27 02:50:37;;;;;;;19.58;12.07;;;0.00;99.90;;;;;;5020097;28;20552;-67
2021/12/27 02:53:04;;;;;;;21.05;12.98;;;0.00;99.90;;;;;;5020132;28;20060;-67
2021/12/27 02:55:30;;;;;;;24.20;13.00;;;0.00;99.90;;;;;;5019173;28;20499;-67
2021/12/27 02:57:56;;;;;;;16.98;10.63;;;0.00;99.90;;;;;;5020838;28;20052;-67
2021/12/27 03:00:34;;;;;;;17.65;11.30;;;0.10;99.90;;;;;;5019943;28;20049;-67
2021/12/27 03:03:00;;;;;;;15.95;11.50;;;0.10;99.90;;;;;;5020396;28;20136;-67
2021/12/27 03:05:28;;;;;;;17.70;11.30;;;0.10;99.90;;;;;;5015746;28;20106;-67
2021/12/27 03:07:55;;;;;;;16.02;11.07;;;0.10;99.90;;;;;;5020086;28;20107;-67
2021/12/27 03:10:28;;;;;;;15.98;9.82;;;0.10;99.90;;;;;;5020635;28;20042;-67
2021/12/27 03:12:54;;;;;;;16.65;12.57;;;0.10;99.90;;;;;;5020793;28;20045;-66
2021/12/27 03:15:22;;;;;;;15.55;10.40;;;0.10;99.90;;;;;;5017212;28;20037;-67
2021/12/27 03:17:49;;;;;;;18.30;9.27;;;0.20;99.90;;;;;;5020227;28;20056;-67
2021/12/27 03:20:18;;;;;;;16.27;9.52;;;0.10;99.90;;;;;;5020217;28;20054;-67
2021/12/27 03:22:43;;;;;;;18.13;12.25;;;0.10;99.90;;;;;;5019763;28;20053;-68
2021/12/27 03:25:13;;;;;;;19.70;11.18;;;0.20;99.90;;;;;;5017277;28;20076;-67
2021/12/27 03:27:39;;;;;;;18.15;11.73;;;0.10;99.90;;;;;;5019537;28;20052;-67
2021/12/27 03:30:17;;;;;;;15.70;11.85;;;0.20;99.90;;;;;;5018058;28;20050;-67
2021/12/27 03:32:43;;;;;;;19.65;11.20;;;0.20;99.90;;;;;;5020269;28;20053;-67
2021/12/27 03:35:14;;;;;;;21.25;13.13;;;0.20;99.90;;;;;;5019611;28;20057;-67
2021/12/27 03:37:42;;;;;;;18.05;11.38;;;0.20;99.90;;;;;;5020180;28;20045;-67
2021/12/27 03:40:10;;;;;;;17.05;12.88;;;0.20;99.90;;;;;;4999988;28;20054;-67
2021/12/27 03:42:37;;;;;;;23.77;12.40;;;0.20;99.90;;;;;;4998834;28;20104;-67
2021/12/27 03:45:03;;;;;;;18.50;10.88;;;0.20;99.90;;;;;;5016947;28;20092;-67
2021/12/27 03:47:29;;;;;;;22.60;13.05;;;0.20;99.90;;;;;;5019802;28;20100;-67
2021/12/27 03:49:54;;;;;;;18.52;13.27;;;0.20;99.90;;;;;;5019456;28;20558;-67
2021/12/27 03:52:20;;;;;;;22.60;13.30;;;0.20;99.90;;;;;;5020099;28;20160;-67
2021/12/27 03:54:46;;;;;;;20.88;12.23;;;0.20;99.90;;;;;;5020219;28;20053;-67
2021/12/27 03:57:14;;;;;;;16.25;12.27;;;0.20;99.90;;;;;;5014985;28;20107;-67
2021/12/27 04:02:09;;;;;;;20.58;12.77;;;0.30;99.90;;;;;;5018601;28;20049;-67
2021/12/27 04:04:35;;;;;;;19.00;13.05;;;0.30;99.90;;;;;;5018737;28;20060;-66
2021/12/27 04:07:00;;;;;;;24.67;13.70;;;0.30;99.90;;;;;;5019768;28;20049;-67
2021/12/27 04:09:27;;;;;;;20.23;12.30;;;0.30;99.90;;;;;;5019954;28;20870;-67
2021/12/27 04:11:52;;;;;;;20.38;13.20;;;0.40;99.90;;;;;;5017762;28;20053;-66
2021/12/27 04:14:18;;;;;;;25.48;12.02;;;0.30;99.90;;;;;;5019445;28;20535;-66
2021/12/27 04:16:44;;;;;;;20.23;13.00;;;0.30;99.90;;;;;;5019345;28;20041;-67
2021/12/27 04:19:09;;;;;;;17.83;13.98;;;0.40;99.90;;;;;;5017460;28;20049;-66
2021/12/27 04:21:35;;;;;;;21.83;13.80;;;0.40;99.90;;;;;;5019753;28;20045;-67
2021/12/27 04:24:01;;;;;;;17.60;11.32;;;0.30;99.90;;;;;;5019596;28;20784;-67
2021/12/27 04:26:26;;;;;;;17.30;12.07;;;0.40;99.90;;;;;;5019158;28;20046;-67
2021/12/27 04:28:52;;;;;;;16.67;12.48;;;0.40;99.90;;;;;;5019409;28;20489;-66
2021/12/27 04:31:17;;;;;;;17.00;10.68;;;0.40;99.90;;;;;;5017681;28;20473;-66
2021/12/27 04:33:44;;;;;;;18.33;12.80;;;0.40;99.90;;;;;;5011926;28;20538;-66
2021/12/27 04:36:09;;;;;;;21.33;13.38;;;0.50;99.90;;;;;;5019046;28;20037;-66
2021/12/27 04:38:36;;;;;;;21.55;12.35;;;0.40;99.90;;;;;;5016875;28;20416;-66
2021/12/27 04:41:03;;;;;;;20.38;12.82;;;0.50;99.90;;;;;;5034483;28;20057;-66
2021/12/27 04:43:29;;;;;;;20.02;12.18;;;0.50;99.90;;;;;;5038673;28;20049;-66
2021/12/27 04:45:55;;;;;;;21.23;13.23;;;0.50;99.90;;;;;;5038431;28;20048;-67
2021/12/27 04:48:23;;;;;;;19.45;11.75;;;0.50;99.90;;;;;;5039105;28;20139;-68
2021/12/27 04:50:48;;;;;;;22.80;12.00;;;0.50;99.90;;;;;;5038813;28;20064;-67
2021/12/27 04:53:15;;;;;;;22.42;14.63;;;0.50;99.90;;;;;;5038209;28;20865;-67
2021/12/27 04:55:40;;;;;;;21.75;13.95;;;0.50;99.90;;;;;;5039370;28;20056;-67
2021/12/27 04:58:09;;;;;;;18.17;11.82;;;0.60;99.90;;;;;;5020761;28;20045;-66
2021/12/27 05:00:35;;;;;;;19.13;12.55;;;0.60;99.90;;;;;;5038597;28;20057;-66
2021/12/27 05:03:01;;;;;;;19.33;10.15;;;0.60;99.90;;;;;;5038925;28;20136;-67
2021/12/27 05:05:28;;;;;;;17.60;11.60;;;0.60;99.90;;;;;;5038692;28;20391;-66
2021/12/27 05:07:54;;;;;;;25.17;13.55;;;0.70;99.90;;;;;;5038432;28;20057;-66
2021/12/27 05:10:19;;;;;;;19.88;14.25;;;0.70;99.90;;;;;;5038754;28;20118;-66
2021/12/27 05:12:45;;;;;;;21.25;12.73;;;0.70;99.90;;;;;;5039237;28;20562;-66
2021/12/27 05:15:11;;;;;;;20.98;12.15;;;0.70;99.90;;;;;;5042220;28;20049;-66
2021/12/27 05:17:37;;;;;;;20.02;10.90;;;0.70;99.90;;;;;;5043164;28;20152;-66
2021/12/27 05:20:05;;;;;;;16.58;11.13;;;0.70;99.90;;;;;;5043332;28;20997;-66
2021/12/27 05:22:31;;;;;;;19.95;13.40;;;0.70;99.90;;;;;;5042869;28;20057;-66
2021/12/27 05:24:57;;;;;;;18.55;11.52;;;0.70;99.90;;;;;;5025388;28;20132;-66
2021/12/27 05:27:23;;;;;;;16.65;11.80;;;0.70;99.90;;;;;;5025619;28;20061;-65
2021/12/27 05:29:49;;;;;;;20.58;12.32;;;0.70;99.90;;;;;;5042598;28;20075;-66
2021/12/27 05:32:14;;;;;;;23.45;13.20;;;0.70;99.90;;;;;;5042540;28;20415;-66
2021/12/27 05:34:40;;;;;;;17.15;11.82;;;0.80;99.90;;;;;;5024412;28;20073;-66
2021/12/27 05:37:06;;;;;;;16.08;11.85;;;0.80;99.90;;;;;;5042257;28;20051;-66
2021/12/27 05:39:33;;;;;;;19.00;11.77;;;0.80;99.90;;;;;;5042593;28;20122;-66
2021/12/27 05:41:58;;;;;;;20.08;12.35;;;0.80;99.90;;;;;;5042588;28;20954;-66
2021/12/27 05:44:24;;;;;;;21.65;14.20;;;0.80;99.90;;;;;;5042843;28;20080;-66
2021/12/27 05:46:49;;;;;;;20.48;12.88;;;0.80;99.90;;;;;;5025365;28;20049;-66
2021/12/27 05:49:15;;;;;;;20.77;13.98;;;0.80;99.90;;;;;;5042415;28;20131;-66
2021/12/27 05:51:43;;;;;;;19.13;13.68;;;0.80;99.90;;;;;;5039955;28;20052;-66
2021/12/27 05:54:10;;;;;;;18.23;12.05;;;0.80;99.90;;;;;;5040116;28;20190;-66
2021/12/27 05:56:36;;;;;;;18.75;11.82;;;0.80;99.90;;;;;;5039584;28;20416;-66
2021/12/27 05:59:02;;;;;;;20.10;11.35;;;0.80;99.90;;;;;;5040324;28;20045;-64
2021/12/27 06:01:28;;;;;;;16.35;10.23;;;0.80;99.90;;;;;;5040169;28;20072;-63
2021/12/27 06:03:57;;;;;;;17.02;12.02;;;0.80;99.90;;;;;;5038443;28;20056;-63
2021/12/27 06:06:23;;;;;;;19.08;13.50;;;0.80;99.90;;;;;;5039478;28;20126;-63
2021/12/27 06:08:49;;;;;;;21.70;11.23;;;0.80;99.90;;;;;;5039826;28;20048;-63
2021/12/27 06:11:14;;;;;;;22.15;14.27;;;0.80;99.90;;;;;;5039294;28;20151;-63
2021/12/27 06:13:40;;;;;;;23.55;13.25;;;0.80;99.90;;;;;;5021850;28;20570;-63
2021/12/27 06:16:06;;;;;;;20.20;13.43;;;0.80;99.90;;;;;;5039252;28;20051;-63
2021/12/27 06:18:31;;;;;;;20.35;15.23;;;0.80;99.90;;;;;;5038042;28;20048;-63
2021/12/27 06:20:57;;;;;;;20.02;12.35;;;0.80;99.90;;;;;;5039773;28;20741;-63
2021/12/27 06:23:22;;;;;;;16.88;14.18;;;0.90;99.90;;;;;;5039176;28;20048;-63
2021/12/27 06:25:48;;;;;;;16.85;12.00;;;0.90;99.90;;;;;;5038548;28;20114;-63
2021/12/27 06:28:14;;;;;;;18.70;13.85;;;0.90;99.90;;;;;;5039339;28;20103;-63
2021/12/27 06:30:40;;;;;;;20.10;13.18;;;0.90;99.90;;;;;;5041546;28;20051;-63
2021/12/27 06:33:06;;;;;;;21.58;14.23;;;0.90;99.90;;;;;;5040756;28;20503;-65
2021/12/27 06:35:33;;;;;;;24.90;14.88;;;0.90;99.90;;;;;;5041614;28;20538;-65
2021/12/27 06:37:58;;;;;;;23.73;14.95;;;0.90;99.90;;;;;;5041504;28;20052;-65
2021/12/27 06:40:24;;;;;;;24.25;14.63;;;0.80;99.90;;;;;;5041143;28;20514;-65
2021/12/27 06:42:50;;;;;;;23.55;14.60;;;0.80;99.90;;;;;;5041504;28;20130;-65
2021/12/27 06:45:15;;;;;;;17.83;13.05;;;0.80;99.90;;;;;;5037454;28;20091;-65
2021/12/27 06:47:41;;;;;;;24.52;15.05;;;0.80;99.90;;;;;;5040530;28;20048;-65
2021/12/27 06:50:08;;;;;;;27.98;14.38;;;0.80;99.90;;;;;;5022469;28;20053;-65
2021/12/27 06:52:33;;;;;;;18.02;13.25;;;0.80;99.90;;;;;;5040247;28;20767;-65
2021/12/27 06:54:59;;;;;;;20.13;12.18;;;0.80;99.90;;;;;;5040455;28;20083;-65
2021/12/27 06:57:25;;;;;;;20.40;14.20;;;0.80;99.90;;;;;;5040817;28;20052;-65
2021/12/27 06:59:50;;;;;;;20.50;14.10;;;0.70;99.90;;;;;;5040040;28;20061;-65
2021/12/27 07:02:16;;;;;;;24.83;12.95;;;0.80;99.90;;;;;;5022499;28;20051;-65
2021/12/27 07:04:41;;;;;;;24.55;14.75;;;0.80;99.90;;;;;;5040024;28;20076;-64
2021/12/27 07:07:07;;;;;;;19.85;13.93;;;0.80;99.90;;;;;;5037274;28;20151;-65
2021/12/27 07:09:32;;;;;;;23.20;12.95;;;0.80;99.90;;;;;;5019661;28;20048;-64
2021/12/27 07:11:59;;;;;;;17.63;11.80;;;0.80;99.90;;;;;;5038009;28;20120;-65
2021/12/27 07:14:24;;;;;;;19.10;13.90;;;0.80;99.90;;;;;;5037591;28;20049;-65
2021/12/27 07:16:50;;;;;;;23.75;14.88;;;0.80;99.90;;;;;;5019932;28;20048;-65
2021/12/27 07:19:15;;;;;;;23.42;14.38;;;0.80;99.90;;;;;;5037517;28;20566;-64
2021/12/27 07:21:41;;;;;;;26.25;16.55;;;0.80;99.90;;;;;;5037528;28;20055;-64
2021/12/27 07:24:07;;;;;;;20.83;14.75;;;0.80;99.90;;;;;;5038165;28;20068;-64
2021/12/27 07:26:33;;;;;;;22.23;15.18;;;0.70;99.90;;;;;;5037660;28;20045;-64
2021/12/27 07:28:58;;;;;;;22.30;14.57;;;0.80;99.90;;;;;;5036987;28;20060;-65
2021/12/27 07:31:24;;;;;;;22.10;14.10;;;0.80;99.90;;;;;;5036528;28;20120;-64
2021/12/27 07:33:50;;;;;;;20.70;14.38;;;0.80;99.90;;;;;;5036642;28;20040;-64
2021/12/27 07:36:16;;;;;;;24.20;15.15;;;0.70;99.90;;;;;;5034971;28;20040;-64
2021/12/27 07:38:42;;;;;;;21.63;15.23;;;0.80;99.90;;;;;;5038086;28;20052;-65
2021/12/27 07:41:09;;;;;;;24.00;15.48;;;0.70;99.90;;;;;;5036682;28;20144;-64
2021/12/27 07:43:34;;;;;;;22.38;14.88;;;0.80;99.90;;;;;;5035630;28;20061;-65
2021/12/27 07:46:01;;;;;;;20.17;15.02;;;0.80;99.90;;;;;;5035221;28;20675;-64
2021/12/27 07:48:26;;;;;;;25.85;14.80;;;0.80;99.90;;;;;;5036128;28;20119;-64
2021/12/27 07:50:52;;;;;;;22.98;15.95;;;0.80;99.90;;;;;;5035467;28;20049;-64
2021/12/27 07:53:17;;;;;;;23.20;16.52;;;0.80;99.90;;;;;;5018276;28;20060;-64
2021/12/27 07:55:43;;;;;;;25.17;16.17;;;0.80;99.90;;;;;;5018076;28;20048;-64
2021/12/27 07:58:08;;;;;;;23.05;15.75;;;0.90;99.90;;;;;;5036409;28;20548;-64
2021/12/27 08:00:34;;;;;;;23.77;13.77;;;0.90;99.90;;;;;;5036538;28;20106;-64
2021/12/27 08:03:00;;;;;;;23.23;15.65;;;0.90;99.90;;;;;;5017572;28;20827;-65
2021/12/27 08:05:26;;;;;;;25.83;15.75;;;0.90;99.90;;;;;;5036474;28;20045;-64
2021/12/27 08:07:52;;;;;;;25.23;16.48;;;0.90;99.90;;;;;;5018651;28;20088;-64
2021/12/27 08:10:18;;;;;;;24.85;15.45;;;0.90;99.90;;;;;;5036479;28;20118;-64
2021/12/27 08:12:44;;;;;;;24.63;14.07;;;0.90;99.90;;;;;;5036674;28;20447;-64
2021/12/27 08:15:11;;;;;;;20.00;13.50;;;0.90;99.90;;;;;;5017831;28;20499;-64
2021/12/27 08:17:38;;;;;;;25.75;14.98;;;1.00;99.90;;;;;;5035902;28;20132;-65
2021/12/27 08:20:05;;;;;;;23.08;14.35;;;1.00;99.90;;;;;;5018529;28;20052;-64
2021/12/27 08:22:31;;;;;;;27.08;16.40;;;1.00;99.90;;;;;;5036032;28;20049;-64
2021/12/27 08:24:58;;;;;;;20.40;15.52;;;1.10;99.90;;;;;;5035571;28;20053;-64
2021/12/27 08:27:26;;;;;;;21.75;14.05;;;1.10;99.90;;;;;;5032132;28;20037;-64
2021/12/27 08:29:52;;;;;;;28.52;16.88;;;1.10;99.90;;;;;;5035932;28;20045;-64
2021/12/27 08:32:18;;;;;;;29.85;17.00;;;1.20;99.90;;;;;;5017842;28;20068;-64
2021/12/27 08:34:43;;;;;;;24.70;16.15;;;1.20;99.90;;;;;;5036827;28;20052;-64
2021/12/27 08:37:09;;;;;;;32.58;15.32;;;1.20;99.90;;;;;;5035595;28;20049;-64
2021/12/27 08:39:35;;;;;;;31.52;17.17;;;1.20;99.90;;;;;;5035866;28;20060;-63
2021/12/27 08:42:03;;;;;;;27.92;15.02;;;1.20;99.90;;;;;;5036515;28;20862;-64
2021/12/27 08:44:29;;;;;;;24.88;15.30;;;1.30;99.90;;;;;;5035991;28;20475;-64
2021/12/27 08:46:54;;;;;;;25.10;15.40;;;1.30;99.90;;;;;;5035364;28;20563;-63
2021/12/27 08:49:20;;;;;;;23.38;13.48;;;1.30;99.90;;;;;;5035074;28;20041;-64
2021/12/27 08:51:46;;;;;;;32.10;16.50;;;1.30;99.90;;;;;;5015914;28;20122;-63
2021/12/27 08:54:11;;;;;;;22.80;16.25;;;1.40;99.90;;;;;;5016702;28;20903;-64
2021/12/27 08:56:38;;;;;;;29.73;15.32;;;1.40;99.90;;;;;;5035310;28;20048;-64
2021/12/27 08:59:05;;;;;;;25.95;17.83;;;1.40;99.90;;;;;;5016653;28;20056;-63
2021/12/27 09:01:30;;;;;;;26.58;14.30;;;1.40;99.90;;;;;;5035528;28;20060;-63
2021/12/27 09:03:56;;;;;;;23.35;14.85;;;1.50;99.90;;;;;;5017464;28;20049;-63
2021/12/27 09:06:22;;;;;;;20.55;14.13;;;1.50;99.90;;;;;;5035820;28;20756;-63
2021/12/27 09:08:48;;;;;;;27.42;15.55;;;1.50;99.90;;;;;;5036790;28;20060;-61
2021/12/27 09:11:13;;;;;;;27.05;17.45;;;1.50;99.90;;;;;;5036749;28;20041;-63
2021/12/27 09:13:39;;;;;;;27.63;15.77;;;1.50;99.90;;;;;;5036787;28;20045;-63
2021/12/27 09:16:05;;;;;;;22.65;14.35;;;1.60;99.90;;;;;;5036836;28;20048;-63
2021/12/27 09:18:33;;;;;;;20.02;15.00;;;1.80;99.90;;;;;;5037535;28;20048;-63
2021/12/27 09:21:00;;;;;;;22.50;15.18;;;1.60;99.90;;;;;;5036817;28;20045;-63
2021/12/27 09:23:26;;;;;;;26.00;15.43;;;1.60;99.90;;;;;;5019069;28;20064;-63
2021/12/27 09:25:51;;;;;;;26.65;16.83;;;1.70;99.90;;;;;;5036717;28;20839;-63
2021/12/27 09:28:17;;;;;;;33.17;17.67;;;1.70;99.90;;;;;;5036798;28;20041;-63
2021/12/27 09:30:43;;;;;;;23.90;16.83;;;1.70;99.90;;;;;;5019028;28;20080;-63
2021/12/27 09:33:09;;;;;;;28.13;18.13;;;1.70;99.90;;;;;;5036899;28;20080;-63
2021/12/27 09:35:35;;;;;;;36.58;17.83;;;1.70;99.90;;;;;;5036827;28;20140;-63
2021/12/27 09:38:01;;;;;;;25.83;16.48;;;1.70;99.90;;;;;;5037068;28;20747;-63
2021/12/27 09:40:27;;;;;;;32.53;16.77;;;1.70;99.90;;;;;;5034458;28;20455;-63
2021/12/27 09:42:53;;;;;;;24.30;17.52;;;1.70;99.90;;;;;;5035472;28;20051;-63
2021/12/27 09:45:21;;;;;;;26.60;17.92;;;1.70;99.90;;;;;;5037083;28;20045;-62
2021/12/27 09:47:49;;;;;;;26.90;16.40;;;1.70;99.90;;;;;;5036612;28;20075;-63
2021/12/27 09:50:21;;;;;;;31.42;17.60;;;1.60;99.90;;;;;;5036348;28;20072;-62
2021/12/27 09:52:47;;;;;;;27.92;18.77;;;1.60;99.90;;;;;;5036096;28;20045;-62
2021/12/27 09:55:12;;;;;;;35.05;17.85;;;1.70;99.90;;;;;;5018271;28;20056;-62
2021/12/27 09:57:38;;;;;;;33.45;19.30;;;1.60;99.90;;;;;;5036947;28;20159;-61
2021/12/27 10:00:05;;;;;;;28.13;17.55;;;1.30;99.90;;;;;;5038925;28;20095;-62
2021/12/27 10:02:34;;;;;;;36.65;19.23;;;1.60;99.90;;;;;;5039538;28;20044;-62
2021/12/27 10:05:00;;;;;;;31.20;19.13;;;1.70;99.90;;;;;;5040628;28;20057;-62
2021/12/27 10:07:28;;;;;;;36.88;18.92;;;1.70;99.90;;;;;;5040646;28;20613;-62
2021/12/27 10:09:55;;;;;;;28.00;17.95;;;1.70;99.90;;;;;;5040141;28;20052;-62
2021/12/27 10:12:22;;;;;;;32.45;18.65;;;1.70;99.90;;;;;;5041014;28;20088;-62
2021/12/27 10:14:57;;;;;;;30.88;19.02;;;1.80;99.90;;;;;;5023254;28;20049;-62
2021/12/27 10:17:23;;;;;;;40.70;20.40;;;1.80;99.90;;;;;;5041111;28;20072;-62
2021/12/27 10:19:50;;;;;;;39.28;21.17;;;1.90;99.90;;;;;;5042029;28;20056;-62
2021/12/27 10:22:16;;;;;;;31.40;18.35;;;1.90;99.90;;;;;;5023674;28;20487;-62
2021/12/27 10:24:42;;;;;;;31.50;21.58;;;2.00;99.90;;;;;;5022830;28;20057;-63
2021/12/27 10:27:07;;;;;;;42.63;21.33;;;2.00;99.90;;;;;;5023458;28;20132;-63
2021/12/27 10:29:38;;;;;;;37.55;18.60;;;2.10;99.90;;;;;;5041459;28;20071;-62
2021/12/27 10:32:10;;;;;;;39.80;19.42;;;2.10;99.90;;;;;;5023186;28;20132;-62
2021/12/27 10:34:48;;;;;;;35.72;18.33;;;2.10;99.90;;;;;;5023757;28;20131;-63
2021/12/27 10:37:18;;;;;;;38.88;18.70;;;2.10;99.90;;;;;;5023330;28;20076;-63
2021/12/27 10:39:58;;;;;;;37.13;20.40;;;2.10;99.90;;;;;;5041532;28;20059;-62
2021/12/27 10:42:39;;;;;;;47.78;19.83;;;2.20;99.90;;;;;;5041742;28;20117;-63
2021/12/27 10:45:12;;;;;;;39.53;20.52;;;2.20;99.90;;;;;;5022513;28;20853;-63
2021/12/27 10:47:40;;;;;;;45.55;23.70;;;2.20;99.90;;;;;;5040918;28;20072;-63
2021/12/27 10:50:11;;;;;;;49.55;23.33;;;2.20;99.90;;;;;;5039696;28;20068;-63
2021/12/27 10:52:40;;;;;;;51.53;21.58;;;2.30;99.90;;;;;;5039369;28;20036;-63
2021/12/27 10:55:06;;;;;;;45.25;21.73;;;2.30;99.90;;;;;;5040072;28;20056;-63
2021/12/27 10:57:32;;;;;;;36.05;20.75;;;2.30;99.90;;;;;;5039655;28;20060;-63
2021/12/27 11:00:33;;;;;;;48.50;22.20;;;2.30;99.90;;;;;;5037754;28;20049;-63
2021/12/27 11:03:02;;;;;;;46.70;22.42;;;2.30;99.90;;;;;;4937795;29;20047;-63
2021/12/27 11:05:30;;;;;;;48.42;21.65;;;2.30;99.90;;;;;;5014704;28;20079;-63
2021/12/27 11:08:03;;;;;;;55.65;23.80;;;2.20;99.90;;;;;;5035908;28;20041;-63
2021/12/27 11:10:29;;;;;;;;;;;2.30;99.90;;;;;;5007197;28;20145;-63
2021/12/27 11:12:59;;;;;;;53.15;23.00;;;2.30;99.90;;;;;;5033575;28;20015;-64
2021/12/27 11:15:33;;;;;;;43.58;24.48;;;2.30;99.90;;;;;;5034699;28;20041;-63
2021/12/27 11:17:58;;;;;;;44.70;23.70;;;2.30;99.90;;;;;;5031716;28;20087;-63
2021/12/27 11:20:24;;;;;;;51.70;25.33;;;2.30;99.90;;;;;;5035747;28;20140;-64
2021/12/27 11:22:53;;;;;;;51.53;25.40;;;2.00;99.90;;;;;;5035127;28;20048;-63
2021/12/27 11:25:22;;;;;;;58.13;26.25;;;2.40;99.90;;;;;;5034577;28;20433;-63
2021/12/27 11:27:48;;;;;;;46.53;24.60;;;2.40;99.90;;;;;;5034423;28;20890;-63
2021/12/27 11:30:16;;;;;;;46.55;22.45;;;2.40;99.90;;;;;;5034306;28;20119;-63
2021/12/27 11:33:09;;;;;;;70.57;27.20;;;2.50;99.90;;;;;;5036788;28;20045;-63
2021/12/27 11:35:39;;;;;;;62.92;23.60;;;2.40;99.90;;;;;;5016656;28;20515;-63
2021/12/27 11:38:05;;;;;;;65.13;25.92;;;2.40;99.90;;;;;;5037722;28;20049;-64
2021/12/27 11:40:44;;;;;;;49.45;23.35;;;2.40;99.90;;;;;;5036134;28;20799;-64
2021/12/27 11:43:10;;;;;;;51.20;25.17;;;2.40;99.90;;;;;;5016125;28;20127;-64
2021/12/27 11:45:43;;;;;;;73.07;24.08;;;2.50;99.90;;;;;;5037124;28;20583;-64
2021/12/27 11:48:20;;;;;;;81.43;25.13;;;2.50;99.90;;;;;;5036237;28;20066;-63
2021/12/27 11:51:04;;;;;;;76.93;25.35;;;2.50;99.90;;;;;;5035935;28;20128;-63
2021/12/27 11:53:34;;;;;;;57.88;26.63;;;2.50;99.90;;;;;;5036290;28;20071;-64
2021/12/27 11:56:03;;;;;;;63.97;24.13;;;2.50;99.90;;;;;;5037659;28;20094;-64
2021/12/27 11:58:35;;;;;;;72.05;23.98;;;2.60;99.90;;;;;;5035873;28;20182;-63
2021/12/27 12:01:21;;;;;;;65.23;23.20;;;2.60;99.90;;;;;;5017913;28;20537;-64
2021/12/27 12:03:49;;;;;;;63.50;25.45;;;2.50;99.90;;;;;;5025586;28;20057;-64
2021/12/27 12:06:42;;;;;;;64.18;26.65;;;2.50;99.90;;;;;;5035330;28;20037;-64
2021/12/27 12:09:20;;;;;;;70.43;26.33;;;2.50;99.90;;;;;;5026195;28;20087;-64
2021/12/27 12:11:59;;;;;;;66.78;25.38;;;2.60;99.90;;;;;;5035423;28;20040;-64
2021/12/27 12:14:27;;;;;;;56.88;27.10;;;3.90;99.90;;;;;;5036335;28;20048;-64
2021/12/27 12:16:53;;;;;;;82.75;25.27;;;2.70;99.90;;;;;;5034414;28;20385;-64
2021/12/27 12:19:39;;;;;;;53.28;24.60;;;2.60;99.90;;;;;;5036458;28;20064;-64
2021/12/27 12:22:05;;;;;;;85.18;27.85;;;2.70;99.90;;;;;;5034917;28;20041;-64
2021/12/27 12:24:30;;;;;;;54.92;24.02;;;2.70;99.90;;;;;;5036028;28;20040;-62
2021/12/27 12:27:09;;;;;;;66.15;25.70;;;2.70;99.90;;;;;;4704407;28;10001303;-65
2021/12/27 12:29:43;;;;;;;79.15;27.45;;;2.70;99.90;;;;;;5015731;28;20304;-65
2021/12/27 12:32:12;;;;;;;80.70;27.52;;;2.70;99.90;;;;;;5032204;28;20041;-65
2021/12/27 12:34:39;;;;;;;86.50;25.63;;;2.60;99.90;;;;;;5033019;28;20049;-65
2021/12/27 12:37:10;;;;;;;85.32;25.50;;;2.60;99.90;;;;;;5032118;28;20093;-64
2021/12/27 12:39:50;;;;;;;85.25;29.92;;;2.60;99.90;;;;;;5029081;28;20137;-64